Ruby Princess — ZCDY2 — position and weather

sailwx.info

Track history (hours):
 
Tides and Currents Weather Stations Pressure Air Temp Water Temp Dewpoint Dewpoint Depression Visibility Wind Speed Wind Dir Waves Ship Positions

Ruby Princess

Last reported at 2019-Mar-22 12:00 UTC. Time now 2019-Mar-22 12:04 UTC.
Position N 32°33' W 117°34'.

Length 289 m; draft 8.7 m.

Type: Ship. MMSI: 310567000.

Date/timePositionNaut miles runAvg speedWind from/ knotsBaromVisibWave heightAir tempDewpointWater temp
2019-Mar-22 12:00N 32°33' W 117°34'510.8
2019-Mar-22 11:30N 32°31' W 117°40'511.0
2019-Mar-22 11:00N 32°30' W 117°46'611.2
2019-Mar-22 10:30N 32°28' W 117°52'611.1
2019-Mar-22 10:00N 32°27' W 117°59'5323.4
2019-Mar-22 10:00N 32°24' W 117°54'1019.7 300 / 161021.710.8 13.8 9.316.0
2019-Mar-22 09:30N 32°26' W 118°05'611.2
2019-Mar-22 09:00N 32°24' W 118°12'611.1
2019-Mar-22 08:29N 32°23' W 118°18'611.2
2019-Mar-22 07:59N 32°21' W 118°25'5910.9
2019-Mar-22 02:36N 32°43' W 119°29'110.9
2019-Mar-22 02:29N 32°44' W 119°31'2 4.1
2019-Mar-22 02:00N 32°42' W 119°30'4612.6 310 / 151020.810.8 14.410.615.0
2019-Mar-21 22:21N 33°10' W 120°13'411.1
2019-Mar-21 22:00N 33°13' W 120°16'4381.8
2019-Mar-21 22:00N 33°12' W 120°12'918.2 280 / 161021.010.8 15.010.315.0
2019-Mar-21 21:30N 33°17' W 120°21'611.0
2019-Mar-21 21:00N 33°21' W 120°25'511.0
2019-Mar-21 20:30N 33°25' W 120°30'510.9
2019-Mar-21 20:00N 33°29' W 120°35'611.2
2019-Mar-21 19:30N 33°33' W 120°39'611.2
2019-Mar-21 19:00N 33°37' W 120°44'611.1
2019-Mar-21 18:30N 33°41' W 120°49'510.8
2019-Mar-21 18:00N 33°45' W 120°53'5323.8
2019-Mar-21 18:00N 33°42' W 120°48'1020.9 290 / 111020.710.8 19.0 9.614.0
2019-Mar-21 17:30N 33°49' W 120°57'612.0
2019-Mar-21 17:00N 33°54' W 121°00'815.5
2019-Mar-21 16:30N 34°01' W 121°05'815.1
2019-Mar-21 16:00N 34°08' W 121°09'714.8
2019-Mar-21 15:30N 34°14' W 121°13'611.2
2019-Mar-21 15:00N 34°19' W 121°16'611.3
2019-Mar-21 14:30N 34°24' W 121°19'511.0
2019-Mar-21 14:01N 34°29' W 121°22'6357.6
2019-Mar-21 14:00N 34°24' W 121°18'1224.0 280 / 181018.910.8 12.7 8.915.0
2019-Mar-21 13:30N 34°34' W 121°25'611.1
2019-Mar-21 13:00N 34°39' W 121°28'611.0
2019-Mar-21 12:30N 34°44' W 121°32'610.9
2019-Mar-21 12:00N 34°49' W 121°35'611.5
2019-Mar-21 11:27N 34°54' W 121°38'511.7
2019-Mar-21 11:00N 34°59' W 121°41'611.5
2019-Mar-21 10:30N 35°04' W 121°44'611.5
2019-Mar-21 10:00N 35°09' W 121°47'5374.9
2019-Mar-21 10:00N 35°06' W 121°42'3413.3 240 / 301018.210.8 13.0 9.114.0
2019-Mar-21 07:27N 35°35' W 122°03'5510.0
2019-Mar-21 02:00N 36°30' W 122°00'35 2.3 230 / 91018.510.8 13.0 7.914.0
2019-Mar-20 11:18N 37°00' W 122°21'310.2
2019-Mar-20 11:00N 37°02' W 122°24'510.4
2019-Mar-20 10:30N 37°06' W 122°28'510.3
2019-Mar-20 10:00N 37°10' W 122°33'4653.1
2019-Mar-20 10:00N 37°06' W 122°30'919.3 170 / 251012.5 5.4 12.011.014.0
2019-Mar-20 09:30N 37°13' W 122°38'510.2
2019-Mar-20 09:00N 37°17' W 122°42'510.0
2019-Mar-20 08:30N 37°22' W 122°44'510.2
2019-Mar-20 08:00N 37°27' W 122°44'510.2
2019-Mar-20 07:30N 37°32' W 122°44'510.3
2019-Mar-20 07:00N 37°37' W 122°44'510.1
2019-Mar-20 06:30N 37°42' W 122°42'611.8
2019-Mar-20 06:00N 37°46' W 122°37'714.8
2019-Mar-20 05:30N 37°49' W 122°29'4 6.4
2019-Mar-20 04:55N 37°48' W 122°24'0 0.0
2019-Mar-20 04:28N 37°48' W 122°24'0 0.0
2019-Mar-20 03:58N 37°48' W 122°24'0 0.0
2019-Mar-20 03:28N 37°48' W 122°24'0 0.0
2019-Mar-20 02:58N 37°48' W 122°24'0 0.0
2019-Mar-20 02:30N 37°48' W 122°24'0 0.0
2019-Mar-20 02:00N 37°48' W 122°24'0 0.0
2019-Mar-20 01:30N 37°48' W 122°24'0 0.0
2019-Mar-20 01:00N 37°48' W 122°24'0 0.0
2019-Mar-20 00:30N 37°48' W 122°24'0 0.0
2019-Mar-19 23:59N 37°48' W 122°24'0 0.0
2019-Mar-19 23:29N 37°48' W 122°24'0 0.0
2019-Mar-19 22:59N 37°48' W 122°24'0 0.0
2019-Mar-19 22:29N 37°48' W 122°24'0 0.0
2019-Mar-19 21:58N 37°48' W 122°24'0 0.0
2019-Mar-19 21:28N 37°48' W 122°24'0 0.0
2019-Mar-19 20:58N 37°48' W 122°24'0 0.0
2019-Mar-19 20:28N 37°48' W 122°24'0 0.0
2019-Mar-19 19:58N 37°48' W 122°24'0 0.0
2019-Mar-19 19:30N 37°48' W 122°24'0 0.0
2019-Mar-19 19:00N 37°48' W 122°24'0 0.0
2019-Mar-19 18:30N 37°48' W 122°24'0 0.0
2019-Mar-19 17:57N 37°48' W 122°24'0 0.0
2019-Mar-19 17:29N 37°48' W 122°24'0 0.0
2019-Mar-19 16:59N 37°48' W 122°24'0 0.0
2019-Mar-19 16:26N 37°48' W 122°24'0 0.0
2019-Mar-19 15:59N 37°48' W 122°24'0 0.0
2019-Mar-19 15:29N 37°48' W 122°24'0 0.0
2019-Mar-19 14:58N 37°48' W 122°24'0 0.0
2019-Mar-19 14:25N 37°48' W 122°24'0 0.0
2019-Mar-19 13:58N 37°48' W 122°24'0 0.0
2019-Mar-19 13:30N 37°48' W 122°24'1 1.3
2019-Mar-19 13:00N 37°49' W 122°24'510.1
2019-Mar-19 12:30N 37°48' W 122°31'815.1
2019-Mar-19 12:00N 37°45' W 122°40'511.0
2019-Mar-19 11:30N 37°40' W 122°40'612.4
2019-Mar-19 11:00N 37°33' W 122°40'511.0
2019-Mar-19 10:30N 37°28' W 122°40'510.7
2019-Mar-19 10:00N 37°23' W 122°40'6336.9
2019-Mar-19 10:00N 37°18' W 122°36'4 7.5 130 / 111013.610.8 11.5 9.514.0
2019-Mar-19 09:30N 37°17' W 122°40'510.2
2019-Mar-19 09:00N 37°12' W 122°43'510.8
2019-Mar-19 08:30N 37°08' W 122°46'510.9
2019-Mar-19 08:00N 37°03' W 122°49'510.7
2019-Mar-19 07:30N 36°58' W 122°51'510.8
2019-Mar-19 07:00N 36°52' W 122°52'611.1
2019-Mar-19 06:30N 36°47' W 122°52'611.2
2019-Mar-19 06:00N 36°41' W 122°52'611.2
2019-Mar-19 05:30N 36°36' W 122°51'611.1
2019-Mar-19 05:00N 36°30' W 122°49'611.1
2019-Mar-19 04:30N 36°25' W 122°47'611.1
2019-Mar-19 04:00N 36°20' W 122°44'611.4
2019-Mar-19 03:30N 36°15' W 122°40'611.4
2019-Mar-19 03:00N 36°10' W 122°37'611.2
2019-Mar-19 02:30N 36°05' W 122°33'611.1
2019-Mar-19 02:00N 36°00' W 122°30'611.1
2019-Mar-19 01:30N 35°56' W 122°26'611.2
2019-Mar-19 01:00N 35°51' W 122°23'5630.4
2019-Mar-19 01:00N 35°48' W 122°18'3 5.2 220 / 131015.010.8 12.0 7.913.0
2019-Mar-19 00:30N 35°46' W 122°20'611.2
2019-Mar-19 00:00N 35°41' W 122°16'510.9
2019-Mar-18 23:30N 35°36' W 122°13'511.0
2019-Mar-18 23:00N 35°32' W 122°09'611.1
2019-Mar-18 22:30N 35°27' W 122°06'611.2
2019-Mar-18 22:00N 35°22' W 122°03'4278.8
2019-Mar-18 22:00N 35°18' W 122°00'1 2.7 260 / 91016.210.8 10.5 8.514.0
2019-Mar-18 21:30N 35°17' W 121°59'611.3
2019-Mar-18 21:00N 35°12' W 121°56'611.3
2019-Mar-18 20:30N 35°07' W 121°52'611.2
2019-Mar-18 20:00N 35°02' W 121°49'611.2
2019-Mar-18 19:30N 34°57' W 121°45'611.3
2019-Mar-18 19:00N 34°52' W 121°42'611.3
2019-Mar-18 18:30N 34°48' W 121°38'611.3
2019-Mar-18 18:00N 34°43' W 121°35'611.4
2019-Mar-18 17:30N 34°38' W 121°32'611.4
2019-Mar-18 17:00N 34°33' W 121°28'611.3
2019-Mar-18 16:30N 34°28' W 121°25'611.4
2019-Mar-18 16:00N 34°23' W 121°21'611.4
2019-Mar-18 15:30N 34°18' W 121°18'611.2
2019-Mar-18 14:58N 34°13' W 121°14'511.0
2019-Mar-18 14:30N 34°08' W 121°11'511.0
2019-Mar-18 14:00N 34°04' W 121°08'3164.4
2019-Mar-18 14:00N 34°06' W 121°06'714.9 300 / 121015.510.8 13.011.116.0
2019-Mar-18 13:30N 33°59' W 121°04'611.4
2019-Mar-18 13:00N 33°54' W 121°01'611.4
2019-Mar-18 12:30N 33°49' W 120°58'510.8
2019-Mar-18 12:00N 33°45' W 120°53'611.3
2019-Mar-18 11:29N 33°44' W 120°47'511.1
2019-Mar-18 11:00N 33°42' W 120°40'611.2
2019-Mar-18 10:30N 33°41' W 120°34'611.5
2019-Mar-18 10:00N 33°40' W 120°27'611.3
2019-Mar-18 09:30N 33°39' W 120°20'611.0
2019-Mar-18 09:00N 33°38' W 120°14'611.0
2019-Mar-18 08:28N 33°38' W 120°07'511.0
2019-Mar-18 08:00N 33°39' W 120°01'510.8
2019-Mar-18 07:30N 33°39' W 119°54'611.2
2019-Mar-18 07:00N 33°40' W 119°48'611.8
2019-Mar-18 06:30N 33°40' W 119°40'611.7
2019-Mar-18 06:00N 33°41' W 119°33'6555.0
2019-Mar-18 06:00N 33°36' W 119°30'612.2 300 / 211014.710.8 16.0 8.113.0
2019-Mar-18 05:30N 33°41' W 119°27'611.6
2019-Mar-18 04:58N 33°42' W 119°19'611.8
2019-Mar-18 04:28N 33°42' W 119°12'511.5
2019-Mar-18 04:00N 33°43' W 119°06'611.7
2019-Mar-18 03:30N 33°43' W 118°59'611.3
2019-Mar-18 03:00N 33°43' W 118°52'611.6
2019-Mar-18 02:30N 33°43' W 118°45'510.7
2019-Mar-18 02:00N 33°44' W 118°39'3201.3
2019-Mar-18 02:00N 33°42' W 118°36'3 6.9 290 / 251014.210.8 17.0 9.413.0
2019-Mar-18 01:30N 33°44' W 118°33'611.3
2019-Mar-18 01:00N 33°41' W 118°27'611.4
2019-Mar-18 00:30N 33°38' W 118°21'510.4
2019-Mar-18 00:00N 33°41' W 118°15'3 6.7
2019-Mar-17 23:30N 33°44' W 118°17'1 1.4
2019-Mar-17 22:59N 33°45' W 118°17'0 0.0
2019-Mar-17 22:29N 33°45' W 118°17'0 0.0
2019-Mar-17 21:59N 33°45' W 118°17'0 0.0
2019-Mar-17 21:26N 33°45' W 118°17'0 0.0
2019-Mar-17 20:58N 33°45' W 118°17'0 0.0
2019-Mar-17 20:28N 33°45' W 118°17'0 0.0
2019-Mar-17 19:58N 33°45' W 118°17'0 0.0
2019-Mar-17 19:28N 33°45' W 118°17'0 0.0
2019-Mar-17 19:00N 33°45' W 118°17'0 0.0
2019-Mar-17 18:30N 33°45' W 118°17'0 0.0
2019-Mar-17 18:00N 33°45' W 118°17'0 0.0
2019-Mar-17 17:30N 33°45' W 118°17'0 0.0
2019-Mar-17 17:00N 33°45' W 118°17'0 0.0
2019-Mar-17 16:29N 33°45' W 118°17'0 0.0
2019-Mar-17 15:59N 33°45' W 118°17'0 0.0
2019-Mar-17 15:26N 33°45' W 118°17'0 0.0
2019-Mar-17 14:59N 33°45' W 118°17'0 0.0
2019-Mar-17 14:29N 33°45' W 118°17'0 0.0
2019-Mar-17 13:55N 33°45' W 118°17'0 0.0
2019-Mar-17 13:28N 33°45' W 118°17'0 0.0
2019-Mar-17 13:01N 33°45' W 118°17'1 2.4
2019-Mar-17 12:31N 33°44' W 118°16'5 9.1
2019-Mar-17 12:01N 33°40' W 118°13'5 9.7
2019-Mar-17 11:31N 33°36' W 118°10'510.7
2019-Mar-17 11:01N 33°31' W 118°08'612.0
2019-Mar-17 10:31N 33°25' W 118°06'612.7
2019-Mar-17 10:01N 33°19' W 118°03'3161.8
2019-Mar-17 10:00N 33°18' W 118°00'4 8.0 010 / 101015.610.8 15.510.815.0
2019-Mar-17 09:31N 33°14' W 118°00'611.4
2019-Mar-17 09:00N 33°09' W 117°58'611.8
2019-Mar-17 08:31N 33°03' W 117°55'612.1
2019-Mar-17 08:01N 32°58' W 117°53'611.9
2019-Mar-17 07:30N 32°52' W 117°51'612.2
2019-Mar-17 07:01N 32°46' W 117°48'612.3
2019-Mar-17 06:30N 32°40' W 117°45'612.4
2019-Mar-17 06:01N 32°35' W 117°43'612.2
2019-Mar-17 05:30N 32°29' W 117°39'612.6
2019-Mar-17 05:00N 32°24' W 117°36'612.9
2019-Mar-17 04:31N 32°18' W 117°32'713.9
2019-Mar-17 04:00N 32°12' W 117°28'714.4
2019-Mar-17 03:30N 32°06' W 117°24'713.4
2019-Mar-17 03:01N 32°01' W 117°18'714.2
2019-Mar-17 02:30N 31°59' W 117°10'714.4
2019-Mar-17 02:00N 31°56' W 117°02'3217.7
2019-Mar-17 02:00N 31°54' W 117°00'11 0.8 210 / 61015.710.8 15.510.816.0
2019-Mar-16 11:52N 31°43' W 117°04'410.7
2019-Mar-16 11:30N 31°43' W 117°08'510.7
2019-Mar-16 11:00N 31°44' W 117°15'510.8
2019-Mar-16 10:30N 31°44' W 117°21'510.9
2019-Mar-16 10:00N 31°44' W 117°27'3206.8
2019-Mar-16 10:00N 31°42' W 117°24'817.2 340 / 221019.910.8 15.411.316.0
2019-Mar-16 09:30N 31°44' W 117°34'510.7
2019-Mar-16 09:01N 31°44' W 117°40'510.8
2019-Mar-16 08:31N 31°44' W 117°46'611.1
2019-Mar-16 08:01N 31°44' W 117°53'510.4
2019-Mar-16 07:30N 31°48' W 117°56'611.1
2019-Mar-16 07:00N 31°54' W 117°56'611.1
2019-Mar-16 06:30N 31°59' W 117°56'510.2
2019-Mar-16 06:00N 32°04' W 117°53'6420.0
2019-Mar-16 06:00N 32°00' W 117°48'815.6 320 / 151016.910.8 15.0 9.216.0
2019-Mar-16 05:30N 32°08' W 117°49'510.7
2019-Mar-16 05:00N 32°11' W 117°45'510.7
2019-Mar-16 04:30N 32°15' W 117°41'510.5
2019-Mar-16 04:00N 32°20' W 117°37'510.5
2019-Mar-16 03:30N 32°23' W 117°32'510.7
2019-Mar-16 03:00N 32°27' W 117°27'510.9
2019-Mar-16 02:30N 32°30' W 117°23'612.6
2019-Mar-16 02:00N 32°35' W 117°17'611.3
2019-Mar-16 01:30N 32°40' W 117°14'4 7.8
2019-Mar-16 01:01N 32°43' W 117°12'1 2.0
2019-Mar-16 00:29N 32°43' W 117°10'0 0.0
2019-Mar-15 23:59N 32°43' W 117°10'0 0.0
2019-Mar-15 23:29N 32°43' W 117°10'0 0.0
2019-Mar-15 22:59N 32°43' W 117°10'0 0.0
2019-Mar-15 22:28N 32°43' W 117°10'0 0.0
2019-Mar-15 21:58N 32°43' W 117°10'0 0.0
2019-Mar-15 21:28N 32°43' W 117°10'0 0.0
2019-Mar-15 20:58N 32°43' W 117°10'0 0.0
2019-Mar-15 20:25N 32°43' W 117°10'0 0.0
2019-Mar-15 20:00N 32°43' W 117°10'0 0.0
2019-Mar-15 19:30N 32°43' W 117°10'0 0.0
2019-Mar-15 18:57N 32°43' W 117°10'0 0.0
2019-Mar-15 18:30N 32°43' W 117°10'0 0.0
2019-Mar-15 18:00N 32°43' W 117°10'0 0.0
2019-Mar-15 17:29N 32°43' W 117°10'0 0.0
2019-Mar-15 16:59N 32°43' W 117°10'0 0.0
2019-Mar-15 16:29N 32°43' W 117°10'0 0.0
2019-Mar-15 15:59N 32°43' W 117°10'0 0.0
2019-Mar-15 15:28N 32°43' W 117°10'0 0.0
2019-Mar-15 14:58N 32°43' W 117°10'0 0.0
2019-Mar-15 14:28N 32°43' W 117°10'0 0.0
2019-Mar-15 13:58N 32°43' W 117°10'0 0.0
2019-Mar-15 13:28N 32°43' W 117°10'0 0.0
2019-Mar-15 13:00N 32°43' W 117°10'0 0.0
2019-Mar-15 12:30N 32°43' W 117°10'0 0.0
2019-Mar-15 12:00N 32°43' W 117°10'0 0.0
2019-Mar-15 11:27N 32°43' W 117°10'0 0.0
2019-Mar-15 10:59N 32°43' W 117°10'0 0.0
2019-Mar-15 10:29N 32°43' W 117°10'0 0.0
2019-Mar-15 09:59N 32°43' W 117°10'0 0.0
2019-Mar-15 09:20N 32°43' W 117°10'0 0.0
2019-Mar-15 08:56N 32°43' W 117°10'0 0.0
2019-Mar-15 08:25N 32°43' W 117°10'0 0.0
2019-Mar-15 07:55N 32°43' W 117°10'0 0.0
2019-Mar-15 07:25N 32°43' W 117°10'0 0.0
2019-Mar-15 06:55N 32°43' W 117°10'0 0.0
2019-Mar-15 06:28N 32°43' W 117°10'0 0.0
2019-Mar-15 06:00N 32°43' W 117°10'0 0.0
2019-Mar-15 05:30N 32°43' W 117°10'0 0.0
2019-Mar-15 05:00N 32°43' W 117°10'0 0.0
2019-Mar-15 04:30N 32°43' W 117°10'0 0.0
2019-Mar-15 03:59N 32°43' W 117°10'0 0.0
2019-Mar-15 03:29N 32°43' W 117°10'0 0.0
2019-Mar-15 02:59N 32°43' W 117°10'0 0.0
2019-Mar-15 02:29N 32°43' W 117°10'0 0.0
2019-Mar-15 01:59N 32°43' W 117°10'0 0.0
2019-Mar-15 01:28N 32°43' W 117°10'0 0.0
2019-Mar-15 00:58N 32°43' W 117°10'0 0.0
2019-Mar-15 00:28N 32°43' W 117°10'0 0.0
2019-Mar-14 23:58N 32°43' W 117°10'0 0.0
2019-Mar-14 23:27N 32°43' W 117°10'0 0.0
2019-Mar-14 23:00N 32°43' W 117°10'0 0.0
2019-Mar-14 22:30N 32°43' W 117°10'0 0.0
2019-Mar-14 22:00N 32°43' W 117°10'0 0.0
2019-Mar-14 21:30N 32°43' W 117°10'0 0.0
2019-Mar-14 20:59N 32°43' W 117°10'0 0.0
2019-Mar-14 20:29N 32°43' W 117°10'0 0.0
2019-Mar-14 19:59N 32°43' W 117°10'0 0.0
2019-Mar-14 19:29N 32°43' W 117°10'0 0.0
2019-Mar-14 18:59N 32°43' W 117°10'0 0.0
2019-Mar-14 18:29N 32°43' W 117°10'2 3.2
2019-Mar-14 18:00N 32°43' W 117°12'5 9.2
2019-Mar-14 17:30N 32°39' W 117°13'4 8.7
2019-Mar-14 17:00N 32°36' W 117°18'612.0
2019-Mar-14 16:30N 32°34' W 117°25'714.7
2019-Mar-14 16:00N 32°33' W 117°33'612.9
2019-Mar-14 15:30N 32°31' W 117°40'816.8
2019-Mar-14 15:00N 32°29' W 117°50'815.2
2019-Mar-14 14:30N 32°27' W 117°59'816.1
2019-Mar-14 14:00N 32°25' W 118°08'2123.3
2019-Mar-14 14:00N 32°24' W 118°06'1021.2 010 / 221019.910.8 13.710.516.0
2019-Mar-14 13:30N 32°23' W 118°18'917.6
2019-Mar-14 13:00N 32°21' W 118°28'918.0
2019-Mar-14 12:31N 32°24' W 118°38'918.4
2019-Mar-14 12:00N 32°28' W 118°48'918.2
2019-Mar-14 11:30N 32°31' W 118°58'918.4
2019-Mar-14 11:01N 32°35' W 119°08'918.2
2019-Mar-14 10:30N 32°39' W 119°18'612.0
2019-Mar-14 10:00N 32°42' W 119°24'1523.1 360 / 101020.010.8 13.010.114.0
2019-Mar-14 09:20N 32°48' W 119°41'718.1
2019-Mar-14 08:58N 32°50' W 119°48'818.2
2019-Mar-14 08:31N 32°56' W 119°56'918.6
2019-Mar-14 08:00N 33°02' W 120°04'918.8
2019-Mar-14 07:30N 33°09' W 120°11'918.6
2019-Mar-14 07:00N 33°16' W 120°19'918.6
2019-Mar-14 06:30N 33°22' W 120°27'918.4
2019-Mar-14 06:00N 33°29' W 120°35'918.5
2019-Mar-14 05:31N 33°35' W 120°42'918.4
2019-Mar-14 05:01N 33°42' W 120°50'918.0
2019-Mar-14 04:31N 33°49' W 120°57'918.6
2019-Mar-14 04:01N 33°57' W 121°02'918.9
2019-Mar-14 03:30N 34°06' W 121°08'918.8
2019-Mar-14 03:01N 34°14' W 121°13'1019.0
2019-Mar-14 02:30N 34°22' W 121°18'918.7
2019-Mar-14 02:01N 34°31' W 121°23'8477.7
2019-Mar-14 02:00N 34°24' W 121°18'1735.9 340 / 241020.910.8 12.3 6.412.0
2019-Mar-14 01:31N 34°39' W 121°29'918.4
2019-Mar-14 01:01N 34°47' W 121°34'918.3
2019-Mar-14 00:31N 34°55' W 121°38'918.1
2019-Mar-14 00:01N 35°04' W 121°43'918.3
2019-Mar-13 23:31N 35°12' W 121°48'2113.6
2019-Mar-13 22:00N 35°30' W 122°00'12030.0 320 / 301021.810.8 12.0 5.613.0
2019-Mar-13 18:00N 37°30' W 122°00'33 4.4 330 / 221022.310.8 12.0-0.213.0
2019-Mar-13 10:24N 37°08' W 122°31'2 5.4
2019-Mar-13 10:00N 37°06' W 122°30'860.1 330 / 341019.710.8 11.0 4.313.0
2019-Mar-13 09:52N 37°12' W 122°37'1010.6
2019-Mar-13 08:56N 37°20' W 122°44'511.5
2019-Mar-13 08:31N 37°25' W 122°44'611.7
2019-Mar-13 08:01N 37°30' W 122°44'611.2
2019-Mar-13 07:30N 37°36' W 122°44'611.0
2019-Mar-13 07:00N 37°41' W 122°42'611.7
2019-Mar-13 06:30N 37°46' W 122°38'815.5
2019-Mar-13 06:00N 37°49' W 122°29'4 7.5
2019-Mar-13 05:30N 37°48' W 122°24'0 0.0
2019-Mar-13 04:58N 37°48' W 122°24'0 0.0
2019-Mar-13 04:30N 37°48' W 122°24'0 0.0
2019-Mar-13 04:00N 37°48' W 122°24'0 0.0
2019-Mar-13 03:30N 37°48' W 122°24'0 0.0
2019-Mar-13 03:00N 37°48' W 122°24'0 0.0
2019-Mar-13 01:59N 37°48' W 122°24'0 0.0
2019-Mar-13 01:29N 37°48' W 122°24'0 0.0
2019-Mar-13 00:59N 37°48' W 122°24'0 0.0
2019-Mar-13 00:29N 37°48' W 122°24'0 0.0
2019-Mar-12 23:58N 37°48' W 122°24'0 0.0
2019-Mar-12 23:28N 37°48' W 122°24'0 0.0
2019-Mar-12 22:58N 37°48' W 122°24'0 0.0
2019-Mar-12 22:28N 37°48' W 122°24'0 0.0
2019-Mar-12 21:58N 37°48' W 122°24'0 0.0
2019-Mar-12 21:30N 37°48' W 122°24'0 0.0
2019-Mar-12 21:00N 37°48' W 122°24'0 0.0
2019-Mar-12 20:30N 37°48' W 122°24'0 0.0
2019-Mar-12 20:00N 37°48' W 122°24'0 0.0
2019-Mar-12 19:29N 37°48' W 122°24'0 0.0
2019-Mar-12 18:59N 37°48' W 122°24'0 0.0
2019-Mar-12 18:29N 37°48' W 122°24'0 0.3
2019-Mar-12 18:10N 37°48' W 122°24'0 0.4
2019-Mar-12 17:59N 37°48' W 122°24'0 0.0
2019-Mar-12 17:29N 37°48' W 122°24'0 0.0
2019-Mar-12 16:58N 37°48' W 122°24'0 0.0
2019-Mar-12 16:28N 37°48' W 122°24'0 0.0
2019-Mar-12 15:58N 37°48' W 122°24'0 0.0
2019-Mar-12 15:28N 37°48' W 122°24'0 0.0
2019-Mar-12 14:58N 37°48' W 122°24'0 0.0
2019-Mar-12 14:30N 37°48' W 122°24'0 0.0
2019-Mar-12 14:00N 37°48' W 122°24'0 0.2
2019-Mar-12 13:30N 37°48' W 122°24'3 5.1
2019-Mar-12 13:00N 37°49' W 122°27'713.6
2019-Mar-12 12:30N 37°47' W 122°35'  
Track history (hours):
 
Tides and Currents Weather Stations Pressure Air Temp Water Temp Dewpoint Dewpoint Depression Visibility Wind Speed Wind Dir Waves Ship Positions

Ruby Princess

Last reported at 2019-Mar-22 12:00 UTC. Time now 2019-Mar-22 12:04 UTC.
Position N 32°33' W 117°34'.

Length 289 m; draft 8.7 m.

Type: Ship. MMSI: 310567000.

Date/timePositionNaut miles runAvg speedWind from/ knotsBaromVisibWave heightAir tempDewpointWater temp
2019-Mar-22 12:00N 32°33' W 117°34'510.8
2019-Mar-22 11:30N 32°31' W 117°40'511.0
2019-Mar-22 11:00N 32°30' W 117°46'611.2
2019-Mar-22 10:30N 32°28' W 117°52'611.1
2019-Mar-22 10:00N 32°27' W 117°59'5323.4
2019-Mar-22 10:00N 32°24' W 117°54'1019.7 300 / 161021.710.8 13.8 9.316.0
2019-Mar-22 09:30N 32°26' W 118°05'611.2
2019-Mar-22 09:00N 32°24' W 118°12'611.1
2019-Mar-22 08:29N 32°23' W 118°18'611.2
2019-Mar-22 07:59N 32°21' W 118°25'5910.9
2019-Mar-22 02:36N 32°43' W 119°29'110.9
2019-Mar-22 02:29N 32°44' W 119°31'2 4.1
2019-Mar-22 02:00N 32°42' W 119°30'4612.6 310 / 151020.810.8 14.410.615.0
2019-Mar-21 22:21N 33°10' W 120°13'411.1
2019-Mar-21 22:00N 33°13' W 120°16'4381.8
2019-Mar-21 22:00N 33°12' W 120°12'918.2 280 / 161021.010.8 15.010.315.0
2019-Mar-21 21:30N 33°17' W 120°21'611.0
2019-Mar-21 21:00N 33°21' W 120°25'511.0
2019-Mar-21 20:30N 33°25' W 120°30'510.9
2019-Mar-21 20:00N 33°29' W 120°35'611.2
2019-Mar-21 19:30N 33°33' W 120°39'611.2
2019-Mar-21 19:00N 33°37' W 120°44'611.1
2019-Mar-21 18:30N 33°41' W 120°49'510.8
2019-Mar-21 18:00N 33°45' W 120°53'5323.8
2019-Mar-21 18:00N 33°42' W 120°48'1020.9 290 / 111020.710.8 19.0 9.614.0
2019-Mar-21 17:30N 33°49' W 120°57'612.0
2019-Mar-21 17:00N 33°54' W 121°00'815.5
2019-Mar-21 16:30N 34°01' W 121°05'815.1
2019-Mar-21 16:00N 34°08' W 121°09'714.8
2019-Mar-21 15:30N 34°14' W 121°13'611.2
2019-Mar-21 15:00N 34°19' W 121°16'611.3
2019-Mar-21 14:30N 34°24' W 121°19'511.0
2019-Mar-21 14:01N 34°29' W 121°22'6357.6
2019-Mar-21 14:00N 34°24' W 121°18'1224.0 280 / 181018.910.8 12.7 8.915.0
2019-Mar-21 13:30N 34°34' W 121°25'611.1
2019-Mar-21 13:00N 34°39' W 121°28'611.0
2019-Mar-21 12:30N 34°44' W 121°32'610.9
2019-Mar-21 12:00N 34°49' W 121°35'611.5
2019-Mar-21 11:27N 34°54' W 121°38'511.7
2019-Mar-21 11:00N 34°59' W 121°41'611.5
2019-Mar-21 10:30N 35°04' W 121°44'611.5
2019-Mar-21 10:00N 35°09' W 121°47'5374.9
2019-Mar-21 10:00N 35°06' W 121°42'3413.3 240 / 301018.210.8 13.0 9.114.0
2019-Mar-21 07:27N 35°35' W 122°03'5510.0
2019-Mar-21 02:00N 36°30' W 122°00'35 2.3 230 / 91018.510.8 13.0 7.914.0
2019-Mar-20 11:18N 37°00' W 122°21'310.2
2019-Mar-20 11:00N 37°02' W 122°24'510.4
2019-Mar-20 10:30N 37°06' W 122°28'510.3
2019-Mar-20 10:00N 37°10' W 122°33'4653.1
2019-Mar-20 10:00N 37°06' W 122°30'919.3 170 / 251012.5 5.4 12.011.014.0
2019-Mar-20 09:30N 37°13' W 122°38'510.2
2019-Mar-20 09:00N 37°17' W 122°42'510.0
2019-Mar-20 08:30N 37°22' W 122°44'510.2
2019-Mar-20 08:00N 37°27' W 122°44'510.2
2019-Mar-20 07:30N 37°32' W 122°44'510.3
2019-Mar-20 07:00N 37°37' W 122°44'510.1
2019-Mar-20 06:30N 37°42' W 122°42'611.8
2019-Mar-20 06:00N 37°46' W 122°37'714.8
2019-Mar-20 05:30N 37°49' W 122°29'4 6.4
2019-Mar-20 04:55N 37°48' W 122°24'0 0.0
2019-Mar-20 04:28N 37°48' W 122°24'0 0.0
2019-Mar-20 03:58N 37°48' W 122°24'0 0.0
2019-Mar-20 03:28N 37°48' W 122°24'0 0.0
2019-Mar-20 02:58N 37°48' W 122°24'0 0.0
2019-Mar-20 02:30N 37°48' W 122°24'0 0.0
2019-Mar-20 02:00N 37°48' W 122°24'0 0.0
2019-Mar-20 01:30N 37°48' W 122°24'0 0.0
2019-Mar-20 01:00N 37°48' W 122°24'0 0.0
2019-Mar-20 00:30N 37°48' W 122°24'0 0.0
2019-Mar-19 23:59N 37°48' W 122°24'0 0.0
2019-Mar-19 23:29N 37°48' W 122°24'0 0.0
2019-Mar-19 22:59N 37°48' W 122°24'0 0.0
2019-Mar-19 22:29N 37°48' W 122°24'0 0.0
2019-Mar-19 21:58N 37°48' W 122°24'0 0.0
2019-Mar-19 21:28N 37°48' W 122°24'0 0.0
2019-Mar-19 20:58N 37°48' W 122°24'0 0.0
2019-Mar-19 20:28N 37°48' W 122°24'0 0.0
2019-Mar-19 19:58N 37°48' W 122°24'0 0.0
2019-Mar-19 19:30N 37°48' W 122°24'0 0.0
2019-Mar-19 19:00N 37°48' W 122°24'0 0.0
2019-Mar-19 18:30N 37°48' W 122°24'0 0.0
2019-Mar-19 17:57N 37°48' W 122°24'0 0.0
2019-Mar-19 17:29N 37°48' W 122°24'0 0.0
2019-Mar-19 16:59N 37°48' W 122°24'0 0.0
2019-Mar-19 16:26N 37°48' W 122°24'0 0.0
2019-Mar-19 15:59N 37°48' W 122°24'0 0.0
2019-Mar-19 15:29N 37°48' W 122°24'0 0.0
2019-Mar-19 14:58N 37°48' W 122°24'0 0.0
2019-Mar-19 14:25N 37°48' W 122°24'0 0.0
2019-Mar-19 13:58N 37°48' W 122°24'0 0.0
2019-Mar-19 13:30N 37°48' W 122°24'1 1.3
2019-Mar-19 13:00N 37°49' W 122°24'510.1
2019-Mar-19 12:30N 37°48' W 122°31'815.1
2019-Mar-19 12:00N 37°45' W 122°40'511.0
2019-Mar-19 11:30N 37°40' W 122°40'612.4
2019-Mar-19 11:00N 37°33' W 122°40'511.0
2019-Mar-19 10:30N 37°28' W 122°40'510.7
2019-Mar-19 10:00N 37°23' W 122°40'6336.9
2019-Mar-19 10:00N 37°18' W 122°36'4 7.5 130 / 111013.610.8 11.5 9.514.0
2019-Mar-19 09:30N 37°17' W 122°40'510.2
2019-Mar-19 09:00N 37°12' W 122°43'510.8
2019-Mar-19 08:30N 37°08' W 122°46'510.9
2019-Mar-19 08:00N 37°03' W 122°49'510.7
2019-Mar-19 07:30N 36°58' W 122°51'510.8
2019-Mar-19 07:00N 36°52' W 122°52'611.1
2019-Mar-19 06:30N 36°47' W 122°52'611.2
2019-Mar-19 06:00N 36°41' W 122°52'611.2
2019-Mar-19 05:30N 36°36' W 122°51'611.1
2019-Mar-19 05:00N 36°30' W 122°49'611.1
2019-Mar-19 04:30N 36°25' W 122°47'611.1
2019-Mar-19 04:00N 36°20' W 122°44'611.4
2019-Mar-19 03:30N 36°15' W 122°40'611.4
2019-Mar-19 03:00N 36°10' W 122°37'611.2
2019-Mar-19 02:30N 36°05' W 122°33'611.1
2019-Mar-19 02:00N 36°00' W 122°30'611.1
2019-Mar-19 01:30N 35°56' W 122°26'611.2
2019-Mar-19 01:00N 35°51' W 122°23'5630.4
2019-Mar-19 01:00N 35°48' W 122°18'3 5.2 220 / 131015.010.8 12.0 7.913.0
2019-Mar-19 00:30N 35°46' W 122°20'611.2
2019-Mar-19 00:00N 35°41' W 122°16'510.9
2019-Mar-18 23:30N 35°36' W 122°13'511.0
2019-Mar-18 23:00N 35°32' W 122°09'611.1
2019-Mar-18 22:30N 35°27' W 122°06'611.2
2019-Mar-18 22:00N 35°22' W 122°03'4278.8
2019-Mar-18 22:00N 35°18' W 122°00'1 2.7 260 / 91016.210.8 10.5 8.514.0
2019-Mar-18 21:30N 35°17' W 121°59'611.3
2019-Mar-18 21:00N 35°12' W 121°56'611.3
2019-Mar-18 20:30N 35°07' W 121°52'611.2
2019-Mar-18 20:00N 35°02' W 121°49'611.2
2019-Mar-18 19:30N 34°57' W 121°45'611.3
2019-Mar-18 19:00N 34°52' W 121°42'611.3
2019-Mar-18 18:30N 34°48' W 121°38'611.3
2019-Mar-18 18:00N 34°43' W 121°35'611.4
2019-Mar-18 17:30N 34°38' W 121°32'611.4
2019-Mar-18 17:00N 34°33' W 121°28'611.3
2019-Mar-18 16:30N 34°28' W 121°25'611.4
2019-Mar-18 16:00N 34°23' W 121°21'611.4
2019-Mar-18 15:30N 34°18' W 121°18'611.2
2019-Mar-18 14:58N 34°13' W 121°14'511.0
2019-Mar-18 14:30N 34°08' W 121°11'511.0
2019-Mar-18 14:00N 34°04' W 121°08'3164.4
2019-Mar-18 14:00N 34°06' W 121°06'714.9 300 / 121015.510.8 13.011.116.0
2019-Mar-18 13:30N 33°59' W 121°04'611.4
2019-Mar-18 13:00N 33°54' W 121°01'611.4
2019-Mar-18 12:30N 33°49' W 120°58'510.8
2019-Mar-18 12:00N 33°45' W 120°53'611.3
2019-Mar-18 11:29N 33°44' W 120°47'511.1
2019-Mar-18 11:00N 33°42' W 120°40'611.2
2019-Mar-18 10:30N 33°41' W 120°34'611.5
2019-Mar-18 10:00N 33°40' W 120°27'611.3
2019-Mar-18 09:30N 33°39' W 120°20'611.0
2019-Mar-18 09:00N 33°38' W 120°14'611.0
2019-Mar-18 08:28N 33°38' W 120°07'511.0
2019-Mar-18 08:00N 33°39' W 120°01'510.8
2019-Mar-18 07:30N 33°39' W 119°54'611.2
2019-Mar-18 07:00N 33°40' W 119°48'611.8
2019-Mar-18 06:30N 33°40' W 119°40'611.7
2019-Mar-18 06:00N 33°41' W 119°33'6555.0
2019-Mar-18 06:00N 33°36' W 119°30'612.2 300 / 211014.710.8 16.0 8.113.0
2019-Mar-18 05:30N 33°41' W 119°27'611.6
2019-Mar-18 04:58N 33°42' W 119°19'611.8
2019-Mar-18 04:28N 33°42' W 119°12'511.5
2019-Mar-18 04:00N 33°43' W 119°06'611.7
2019-Mar-18 03:30N 33°43' W 118°59'611.3
2019-Mar-18 03:00N 33°43' W 118°52'611.6
2019-Mar-18 02:30N 33°43' W 118°45'510.7
2019-Mar-18 02:00N 33°44' W 118°39'3201.3
2019-Mar-18 02:00N 33°42' W 118°36'3 6.9 290 / 251014.210.8 17.0 9.413.0
2019-Mar-18 01:30N 33°44' W 118°33'611.3
2019-Mar-18 01:00N 33°41' W 118°27'611.4
2019-Mar-18 00:30N 33°38' W 118°21'510.4
2019-Mar-18 00:00N 33°41' W 118°15'3 6.7
2019-Mar-17 23:30N 33°44' W 118°17'1 1.4
2019-Mar-17 22:59N 33°45' W 118°17'0 0.0
2019-Mar-17 22:29N 33°45' W 118°17'0 0.0
2019-Mar-17 21:59N 33°45' W 118°17'0 0.0
2019-Mar-17 21:26N 33°45' W 118°17'0 0.0
2019-Mar-17 20:58N 33°45' W 118°17'0 0.0
2019-Mar-17 20:28N 33°45' W 118°17'0 0.0
2019-Mar-17 19:58N 33°45' W 118°17'0 0.0
2019-Mar-17 19:28N 33°45' W 118°17'0 0.0
2019-Mar-17 19:00N 33°45' W 118°17'0 0.0
2019-Mar-17 18:30N 33°45' W 118°17'0 0.0
2019-Mar-17 18:00N 33°45' W 118°17'0 0.0
2019-Mar-17 17:30N 33°45' W 118°17'0 0.0
2019-Mar-17 17:00N 33°45' W 118°17'0 0.0
2019-Mar-17 16:29N 33°45' W 118°17'0 0.0
2019-Mar-17 15:59N 33°45' W 118°17'0 0.0
2019-Mar-17 15:26N 33°45' W 118°17'0 0.0
2019-Mar-17 14:59N 33°45' W 118°17'0 0.0
2019-Mar-17 14:29N 33°45' W 118°17'0 0.0
2019-Mar-17 13:55N 33°45' W 118°17'0 0.0
2019-Mar-17 13:28N 33°45' W 118°17'0 0.0
2019-Mar-17 13:01N 33°45' W 118°17'1 2.4
2019-Mar-17 12:31N 33°44' W 118°16'5 9.1
2019-Mar-17 12:01N 33°40' W 118°13'5 9.7
2019-Mar-17 11:31N 33°36' W 118°10'510.7
2019-Mar-17 11:01N 33°31' W 118°08'612.0
2019-Mar-17 10:31N 33°25' W 118°06'612.7
2019-Mar-17 10:01N 33°19' W 118°03'3161.8
2019-Mar-17 10:00N 33°18' W 118°00'4 8.0 010 / 101015.610.8 15.510.815.0
2019-Mar-17 09:31N 33°14' W 118°00'611.4
2019-Mar-17 09:00N 33°09' W 117°58'611.8
2019-Mar-17 08:31N 33°03' W 117°55'612.1
2019-Mar-17 08:01N 32°58' W 117°53'611.9
2019-Mar-17 07:30N 32°52' W 117°51'612.2
2019-Mar-17 07:01N 32°46' W 117°48'612.3
2019-Mar-17 06:30N 32°40' W 117°45'612.4
2019-Mar-17 06:01N 32°35' W 117°43'612.2
2019-Mar-17 05:30N 32°29' W 117°39'612.6
2019-Mar-17 05:00N 32°24' W 117°36'612.9
2019-Mar-17 04:31N 32°18' W 117°32'713.9
2019-Mar-17 04:00N 32°12' W 117°28'714.4
2019-Mar-17 03:30N 32°06' W 117°24'713.4
2019-Mar-17 03:01N 32°01' W 117°18'714.2
2019-Mar-17 02:30N 31°59' W 117°10'714.4
2019-Mar-17 02:00N 31°56' W 117°02'3217.7
2019-Mar-17 02:00N 31°54' W 117°00'11 0.8 210 / 61015.710.8 15.510.816.0
2019-Mar-16 11:52N 31°43' W 117°04'410.7
2019-Mar-16 11:30N 31°43' W 117°08'510.7
2019-Mar-16 11:00N 31°44' W 117°15'510.8
2019-Mar-16 10:30N 31°44' W 117°21'510.9
2019-Mar-16 10:00N 31°44' W 117°27'3206.8
2019-Mar-16 10:00N 31°42' W 117°24'817.2 340 / 221019.910.8 15.411.316.0
2019-Mar-16 09:30N 31°44' W 117°34'510.7
2019-Mar-16 09:01N 31°44' W 117°40'510.8
2019-Mar-16 08:31N 31°44' W 117°46'611.1
2019-Mar-16 08:01N 31°44' W 117°53'510.4
2019-Mar-16 07:30N 31°48' W 117°56'611.1
2019-Mar-16 07:00N 31°54' W 117°56'611.1
2019-Mar-16 06:30N 31°59' W 117°56'510.2
2019-Mar-16 06:00N 32°04' W 117°53'6420.0
2019-Mar-16 06:00N 32°00' W 117°48'815.6 320 / 151016.910.8 15.0 9.216.0
2019-Mar-16 05:30N 32°08' W 117°49'510.7
2019-Mar-16 05:00N 32°11' W 117°45'510.7
2019-Mar-16 04:30N 32°15' W 117°41'510.5
2019-Mar-16 04:00N 32°20' W 117°37'510.5
2019-Mar-16 03:30N 32°23' W 117°32'510.7
2019-Mar-16 03:00N 32°27' W 117°27'510.9
2019-Mar-16 02:30N 32°30' W 117°23'612.6
2019-Mar-16 02:00N 32°35' W 117°17'611.3
2019-Mar-16 01:30N 32°40' W 117°14'4 7.8
2019-Mar-16 01:01N 32°43' W 117°12'1 2.0
2019-Mar-16 00:29N 32°43' W 117°10'0 0.0
2019-Mar-15 23:59N 32°43' W 117°10'0 0.0
2019-Mar-15 23:29N 32°43' W 117°10'0 0.0
2019-Mar-15 22:59N 32°43' W 117°10'0 0.0
2019-Mar-15 22:28N 32°43' W 117°10'0 0.0
2019-Mar-15 21:58N 32°43' W 117°10'0 0.0
2019-Mar-15 21:28N 32°43' W 117°10'0 0.0
2019-Mar-15 20:58N 32°43' W 117°10'0 0.0
2019-Mar-15 20:25N 32°43' W 117°10'0 0.0
2019-Mar-15 20:00N 32°43' W 117°10'0 0.0
2019-Mar-15 19:30N 32°43' W 117°10'0 0.0
2019-Mar-15 18:57N 32°43' W 117°10'0 0.0
2019-Mar-15 18:30N 32°43' W 117°10'0 0.0
2019-Mar-15 18:00N 32°43' W 117°10'0 0.0
2019-Mar-15 17:29N 32°43' W 117°10'0 0.0
2019-Mar-15 16:59N 32°43' W 117°10'0 0.0
2019-Mar-15 16:29N 32°43' W 117°10'0 0.0
2019-Mar-15 15:59N 32°43' W 117°10'0 0.0
2019-Mar-15 15:28N 32°43' W 117°10'0 0.0
2019-Mar-15 14:58N 32°43' W 117°10'0 0.0
2019-Mar-15 14:28N 32°43' W 117°10'0 0.0
2019-Mar-15 13:58N 32°43' W 117°10'0 0.0
2019-Mar-15 13:28N 32°43' W 117°10'0 0.0
2019-Mar-15 13:00N 32°43' W 117°10'0 0.0
2019-Mar-15 12:30N 32°43' W 117°10'0 0.0
2019-Mar-15 12:00N 32°43' W 117°10'0 0.0
2019-Mar-15 11:27N 32°43' W 117°10'0 0.0
2019-Mar-15 10:59N 32°43' W 117°10'0 0.0
2019-Mar-15 10:29N 32°43' W 117°10'0 0.0
2019-Mar-15 09:59N 32°43' W 117°10'0 0.0
2019-Mar-15 09:20N 32°43' W 117°10'0 0.0
2019-Mar-15 08:56N 32°43' W 117°10'0 0.0
2019-Mar-15 08:25N 32°43' W 117°10'0 0.0
2019-Mar-15 07:55N 32°43' W 117°10'0 0.0
2019-Mar-15 07:25N 32°43' W 117°10'0 0.0
2019-Mar-15 06:55N 32°43' W 117°10'0 0.0
2019-Mar-15 06:28N 32°43' W 117°10'0 0.0
2019-Mar-15 06:00N 32°43' W 117°10'0 0.0
2019-Mar-15 05:30N 32°43' W 117°10'0 0.0
2019-Mar-15 05:00N 32°43' W 117°10'0 0.0
2019-Mar-15 04:30N 32°43' W 117°10'0 0.0
2019-Mar-15 03:59N 32°43' W 117°10'0 0.0
2019-Mar-15 03:29N 32°43' W 117°10'0 0.0
2019-Mar-15 02:59N 32°43' W 117°10'0 0.0
2019-Mar-15 02:29N 32°43' W 117°10'0 0.0
2019-Mar-15 01:59N 32°43' W 117°10'0 0.0
2019-Mar-15 01:28N 32°43' W 117°10'0 0.0
2019-Mar-15 00:58N 32°43' W 117°10'0 0.0
2019-Mar-15 00:28N 32°43' W 117°10'0 0.0
2019-Mar-14 23:58N 32°43' W 117°10'0 0.0
2019-Mar-14 23:27N 32°43' W 117°10'0 0.0
2019-Mar-14 23:00N 32°43' W 117°10'0 0.0
2019-Mar-14 22:30N 32°43' W 117°10'0 0.0
2019-Mar-14 22:00N 32°43' W 117°10'0 0.0
2019-Mar-14 21:30N 32°43' W 117°10'0 0.0
2019-Mar-14 20:59N 32°43' W 117°10'0 0.0
2019-Mar-14 20:29N 32°43' W 117°10'0 0.0
2019-Mar-14 19:59N 32°43' W 117°10'0 0.0
2019-Mar-14 19:29N 32°43' W 117°10'0 0.0
2019-Mar-14 18:59N 32°43' W 117°10'0 0.0
2019-Mar-14 18:29N 32°43' W 117°10'2 3.2
2019-Mar-14 18:00N 32°43' W 117°12'5 9.2
2019-Mar-14 17:30N 32°39' W 117°13'4 8.7
2019-Mar-14 17:00N 32°36' W 117°18'612.0
2019-Mar-14 16:30N 32°34' W 117°25'714.7
2019-Mar-14 16:00N 32°33' W 117°33'612.9
2019-Mar-14 15:30N 32°31' W 117°40'816.8
2019-Mar-14 15:00N 32°29' W 117°50'815.2
2019-Mar-14 14:30N 32°27' W 117°59'816.1
2019-Mar-14 14:00N 32°25' W 118°08'2123.3
2019-Mar-14 14:00N 32°24' W 118°06'1021.2 010 / 221019.910.8 13.710.516.0
2019-Mar-14 13:30N 32°23' W 118°18'917.6
2019-Mar-14 13:00N 32°21' W 118°28'918.0
2019-Mar-14 12:31N 32°24' W 118°38'918.4
2019-Mar-14 12:00N 32°28' W 118°48'918.2
2019-Mar-14 11:30N 32°31' W 118°58'918.4
2019-Mar-14 11:01N 32°35' W 119°08'918.2
2019-Mar-14 10:30N 32°39' W 119°18'612.0
2019-Mar-14 10:00N 32°42' W 119°24'1523.1 360 / 101020.010.8 13.010.114.0
2019-Mar-14 09:20N 32°48' W 119°41'718.1
2019-Mar-14 08:58N 32°50' W 119°48'818.2
2019-Mar-14 08:31N 32°56' W 119°56'918.6
2019-Mar-14 08:00N 33°02' W 120°04'918.8
2019-Mar-14 07:30N 33°09' W 120°11'918.6
2019-Mar-14 07:00N 33°16' W 120°19'918.6
2019-Mar-14 06:30N 33°22' W 120°27'918.4
2019-Mar-14 06:00N 33°29' W 120°35'918.5
2019-Mar-14 05:31N 33°35' W 120°42'918.4
2019-Mar-14 05:01N 33°42' W 120°50'918.0
2019-Mar-14 04:31N 33°49' W 120°57'918.6
2019-Mar-14 04:01N 33°57' W 121°02'918.9
2019-Mar-14 03:30N 34°06' W 121°08'918.8
2019-Mar-14 03:01N 34°14' W 121°13'1019.0
2019-Mar-14 02:30N 34°22' W 121°18'918.7
2019-Mar-14 02:01N 34°31' W 121°23'8477.7
2019-Mar-14 02:00N 34°24' W 121°18'1735.9 340 / 241020.910.8 12.3 6.412.0
2019-Mar-14 01:31N 34°39' W 121°29'918.4
2019-Mar-14 01:01N 34°47' W 121°34'918.3
2019-Mar-14 00:31N 34°55' W 121°38'918.1
2019-Mar-14 00:01N 35°04' W 121°43'918.3
2019-Mar-13 23:31N 35°12' W 121°48'2113.6
2019-Mar-13 22:00N 35°30' W 122°00'12030.0 320 / 301021.810.8 12.0 5.613.0
2019-Mar-13 18:00N 37°30' W 122°00'33 4.4 330 / 221022.310.8 12.0-0.213.0
2019-Mar-13 10:24N 37°08' W 122°31'2 5.4
2019-Mar-13 10:00N 37°06' W 122°30'860.1 330 / 341019.710.8 11.0 4.313.0
2019-Mar-13 09:52N 37°12' W 122°37'1010.6
2019-Mar-13 08:56N 37°20' W 122°44'511.5
2019-Mar-13 08:31N 37°25' W 122°44'611.7
2019-Mar-13 08:01N 37°30' W 122°44'611.2
2019-Mar-13 07:30N 37°36' W 122°44'611.0
2019-Mar-13 07:00N 37°41' W 122°42'611.7
2019-Mar-13 06:30N 37°46' W 122°38'815.5
2019-Mar-13 06:00N 37°49' W 122°29'4 7.5
2019-Mar-13 05:30N 37°48' W 122°24'0 0.0
2019-Mar-13 04:58N 37°48' W 122°24'0 0.0
2019-Mar-13 04:30N 37°48' W 122°24'0 0.0
2019-Mar-13 04:00N 37°48' W 122°24'0 0.0
2019-Mar-13 03:30N 37°48' W 122°24'0 0.0
2019-Mar-13 03:00N 37°48' W 122°24'0 0.0
2019-Mar-13 01:59N 37°48' W 122°24'0 0.0
2019-Mar-13 01:29N 37°48' W 122°24'0 0.0
2019-Mar-13 00:59N 37°48' W 122°24'0 0.0
2019-Mar-13 00:29N 37°48' W 122°24'0 0.0
2019-Mar-12 23:58N 37°48' W 122°24'0 0.0
2019-Mar-12 23:28N 37°48' W 122°24'0 0.0
2019-Mar-12 22:58N 37°48' W 122°24'0 0.0
2019-Mar-12 22:28N 37°48' W 122°24'0 0.0
2019-Mar-12 21:58N 37°48' W 122°24'0 0.0
2019-Mar-12 21:30N 37°48' W 122°24'0 0.0
2019-Mar-12 21:00N 37°48' W 122°24'0 0.0
2019-Mar-12 20:30N 37°48' W 122°24'0 0.0
2019-Mar-12 20:00N 37°48' W 122°24'0 0.0
2019-Mar-12 19:29N 37°48' W 122°24'0 0.0
2019-Mar-12 18:59N 37°48' W 122°24'0 0.0
2019-Mar-12 18:29N 37°48' W 122°24'0 0.3
2019-Mar-12 18:10N 37°48' W 122°24'0 0.4
2019-Mar-12 17:59N 37°48' W 122°24'0 0.0
2019-Mar-12 17:29N 37°48' W 122°24'0 0.0
2019-Mar-12 16:58N 37°48' W 122°24'0 0.0
2019-Mar-12 16:28N 37°48' W 122°24'0 0.0
2019-Mar-12 15:58N 37°48' W 122°24'0 0.0
2019-Mar-12 15:28N 37°48' W 122°24'0 0.0
2019-Mar-12 14:58N 37°48' W 122°24'0 0.0
2019-Mar-12 14:30N 37°48' W 122°24'0 0.0
2019-Mar-12 14:00N 37°48' W 122°24'0 0.2
2019-Mar-12 13:30N 37°48' W 122°24'3 5.1
2019-Mar-12 13:00N 37°49' W 122°27'713.6
2019-Mar-12 12:30N 37°47' W 122°35'  

Dump ship's entire track history